sensor_id;sensor_type;location;lat;lon;timestamp;pressure;altitude;pressure_sealevel;temperature;humidity
60817;BME280;51921;51.518;-3.188;2023-12-28T00:00:06;99705.57;;;6.73;100.00
60817;BME280;51921;51.518;-3.188;2023-12-28T00:02:30;99717.75;;;6.24;100.00
60817;BME280;51921;51.518;-3.188;2023-12-28T00:04:55;99719.69;;;6.34;100.00
60817;BME280;51921;51.518;-3.188;2023-12-28T00:07:20;99727.85;;;6.45;100.00
60817;BME280;51921;51.518;-3.188;2023-12-28T00:09:45;99723.50;;;6.70;100.00
60817;BME280;51921;51.518;-3.188;2023-12-28T00:12:11;99734.10;;;6.78;100.00
60817;BME280;51921;51.518;-3.188;2023-12-28T00:14:36;99729.05;;;6.18;100.00
60817;BME280;51921;51.518;-3.188;2023-12-28T00:17:02;99721.48;;;6.76;100.00
60817;BME280;51921;51.518;-3.188;2023-12-28T00:19:27;99734.41;;;6.78;100.00
60817;BME280;51921;51.518;-3.188;2023-12-28T00:21:53;99737.52;;;6.48;100.00
60817;BME280;51921;51.518;-3.188;2023-12-28T00:24:20;99734.06;;;6.57;100.00
60817;BME280;51921;51.518;-3.188;2023-12-28T00:26:43;99723.68;;;6.70;100.00
60817;BME280;51921;51.518;-3.188;2023-12-28T00:29:09;99713.03;;;6.83;100.00
60817;BME280;51921;51.518;-3.188;2023-12-28T00:31:34;99724.41;;;6.85;100.00
60817;BME280;51921;51.518;-3.188;2023-12-28T00:33:59;99713.43;;;6.48;100.00
60817;BME280;51921;51.518;-3.188;2023-12-28T00:36:25;99720.14;;;7.09;100.00
60817;BME280;51921;51.518;-3.188;2023-12-28T00:38:52;99717.72;;;6.56;100.00
60817;BME280;51921;51.518;-3.188;2023-12-28T00:41:17;99718.34;;;6.83;100.00
60817;BME280;51921;51.518;-3.188;2023-12-28T00:43:42;99716.40;;;6.74;100.00
60817;BME280;51921;51.518;-3.188;2023-12-28T00:46:08;99704.52;;;7.15;100.00
60817;BME280;51921;51.518;-3.188;2023-12-28T00:48:33;99723.22;;;6.74;100.00
60817;BME280;51921;51.518;-3.188;2023-12-28T00:50:58;99718.31;;;6.80;100.00
60817;BME280;51921;51.518;-3.188;2023-12-28T00:53:24;99727.57;;;7.35;100.00
60817;BME280;51921;51.518;-3.188;2023-12-28T00:55:50;99709.71;;;6.64;100.00
60817;BME280;51921;51.518;-3.188;2023-12-28T00:58:15;99764.93;;;6.60;100.00
60817;BME280;51921;51.518;-3.188;2023-12-28T01:00:40;99764.99;;;6.66;100.00
60817;BME280;51921;51.518;-3.188;2023-12-28T01:03:05;99738.81;;;6.62;100.00
60817;BME280;51921;51.518;-3.188;2023-12-28T01:05:31;99733.99;;;6.63;100.00
60817;BME280;51921;51.518;-3.188;2023-12-28T01:07:56;99759.70;;;6.55;100.00
60817;BME280;51921;51.518;-3.188;2023-12-28T01:10:22;99770.55;;;6.59;100.00
60817;BME280;51921;51.518;-3.188;2023-12-28T01:12:46;99756.87;;;6.78;100.00
60817;BME280;51921;51.518;-3.188;2023-12-28T01:15:11;99761.52;;;6.85;100.00
60817;BME280;51921;51.518;-3.188;2023-12-28T01:17:37;99760.19;;;6.43;100.00
60817;BME280;51921;51.518;-3.188;2023-12-28T01:20:02;99769.04;;;6.61;100.00
60817;BME280;51921;51.518;-3.188;2023-12-28T01:22:27;99770.70;;;6.73;100.00
60817;BME280;51921;51.518;-3.188;2023-12-28T01:24:53;99766.34;;;6.60;100.00
60817;BME280;51921;51.518;-3.188;2023-12-28T01:27:19;99757.13;;;6.34;100.00
60817;BME280;51921;51.518;-3.188;2023-12-28T01:29:44;99755.24;;;6.25;100.00
60817;BME280;51921;51.518;-3.188;2023-12-28T01:32:09;99769.85;;;6.44;100.00
60817;BME280;51921;51.518;-3.188;2023-12-28T01:34:35;99771.70;;;7.06;100.00
60817;BME280;51921;51.518;-3.188;2023-12-28T01:37:00;99771.64;;;6.31;100.00
60817;BME280;51921;51.518;-3.188;2023-12-28T01:39:26;99787.67;;;6.79;100.00
60817;BME280;51921;51.518;-3.188;2023-12-28T01:41:51;99778.71;;;6.63;100.00
60817;BME280;51921;51.518;-3.188;2023-12-28T01:44:16;99783.23;;;6.64;100.00
60817;BME280;51921;51.518;-3.188;2023-12-28T01:46:42;99782.38;;;6.40;100.00
60817;BME280;51921;51.518;-3.188;2023-12-28T01:49:07;99788.50;;;6.42;100.00
60817;BME280;51921;51.518;-3.188;2023-12-28T01:51:33;99787.93;;;6.67;100.00
60817;BME280;51921;51.518;-3.188;2023-12-28T01:53:57;99785.75;;;6.54;100.00
60817;BME280;51921;51.518;-3.188;2023-12-28T01:56:23;99791.53;;;6.39;100.00
60817;BME280;51921;51.518;-3.188;2023-12-28T01:58:49;99794.53;;;6.74;100.00
60817;BME280;51921;51.518;-3.188;2023-12-28T02:01:14;99797.75;;;6.67;100.00
60817;BME280;51921;51.518;-3.188;2023-12-28T02:03:40;99808.77;;;6.77;100.00
60817;BME280;51921;51.518;-3.188;2023-12-28T02:06:07;99813.82;;;6.58;100.00
60817;BME280;51921;51.518;-3.188;2023-12-28T02:08:30;99825.17;;;7.00;100.00
60817;BME280;51921;51.518;-3.188;2023-12-28T02:10:56;99831.78;;;6.43;100.00
60817;BME280;51921;51.518;-3.188;2023-12-28T02:13:22;99847.15;;;6.44;100.00
60817;BME280;51921;51.518;-3.188;2023-12-28T02:15:50;99832.88;;;6.64;100.00
60817;BME280;51921;51.518;-3.188;2023-12-28T02:18:18;99832.05;;;6.48;100.00
60817;BME280;51921;51.518;-3.188;2023-12-28T02:20:38;99827.30;;;6.27;100.00
60817;BME280;51921;51.518;-3.188;2023-12-28T02:23:03;99847.89;;;6.59;100.00
60817;BME280;51921;51.518;-3.188;2023-12-28T02:25:28;99833.83;;;6.47;100.00
60817;BME280;51921;51.518;-3.188;2023-12-28T02:27:54;99840.05;;;6.33;100.00
60817;BME280;51921;51.518;-3.188;2023-12-28T02:30:21;99834.99;;;6.50;100.00
60817;BME280;51921;51.518;-3.188;2023-12-28T02:32:54;99842.09;;;6.71;100.00
60817;BME280;51921;51.518;-3.188;2023-12-28T02:35:17;99840.15;;;6.27;100.00
60817;BME280;51921;51.518;-3.188;2023-12-28T02:37:37;99818.94;;;6.19;100.00
60817;BME280;51921;51.518;-3.188;2023-12-28T02:40:02;99829.84;;;6.55;100.00
60817;BME280;51921;51.518;-3.188;2023-12-28T02:42:27;99847.30;;;6.76;100.00
60817;BME280;51921;51.518;-3.188;2023-12-28T02:44:52;99851.99;;;6.53;100.00
60817;BME280;51921;51.518;-3.188;2023-12-28T02:47:18;99858.47;;;6.31;100.00
60817;BME280;51921;51.518;-3.188;2023-12-28T02:49:43;99871.07;;;6.04;100.00
60817;BME280;51921;51.518;-3.188;2023-12-28T02:52:10;99854.50;;;6.13;100.00
60817;BME280;51921;51.518;-3.188;2023-12-28T02:54:36;99858.38;;;6.39;100.00
60817;BME280;51921;51.518;-3.188;2023-12-28T02:57:00;99849.15;;;5.96;100.00
60817;BME280;51921;51.518;-3.188;2023-12-28T02:59:26;99849.58;;;5.72;100.00
60817;BME280;51921;51.518;-3.188;2023-12-28T03:01:51;99861.55;;;5.96;100.00
60817;BME280;51921;51.518;-3.188;2023-12-28T03:04:16;99848.20;;;5.64;100.00
60817;BME280;51921;51.518;-3.188;2023-12-28T03:06:46;99840.87;;;5.80;100.00
60817;BME280;51921;51.518;-3.188;2023-12-28T03:09:07;99836.42;;;5.80;100.00
60817;BME280;51921;51.518;-3.188;2023-12-28T03:11:32;99842.95;;;5.93;100.00
60817;BME280;51921;51.518;-3.188;2023-12-28T03:13:58;99844.96;;;6.14;100.00
60817;BME280;51921;51.518;-3.188;2023-12-28T03:16:24;99837.23;;;5.97;100.00
60817;BME280;51921;51.518;-3.188;2023-12-28T03:18:49;99846.86;;;5.88;100.00
60817;BME280;51921;51.518;-3.188;2023-12-28T03:21:14;99851.60;;;6.34;100.00
60817;BME280;51921;51.518;-3.188;2023-12-28T03:23:40;99842.49;;;5.95;100.00
60817;BME280;51921;51.518;-3.188;2023-12-28T03:26:05;99836.28;;;6.67;100.00
60817;BME280;51921;51.518;-3.188;2023-12-28T03:28:31;99834.19;;;6.20;100.00
60817;BME280;51921;51.518;-3.188;2023-12-28T03:30:56;99849.94;;;6.23;100.00
60817;BME280;51921;51.518;-3.188;2023-12-28T03:33:21;99849.06;;;6.18;100.00
60817;BME280;51921;51.518;-3.188;2023-12-28T03:35:47;99858.68;;;6.26;100.00
60817;BME280;51921;51.518;-3.188;2023-12-28T03:38:13;99862.15;;;6.08;100.00
60817;BME280;51921;51.518;-3.188;2023-12-28T03:40:38;99868.76;;;6.04;100.00
60817;BME280;51921;51.518;-3.188;2023-12-28T03:43:03;99868.36;;;6.36;100.00
60817;BME280;51921;51.518;-3.188;2023-12-28T03:45:29;99866.59;;;6.34;100.00
60817;BME280;51921;51.518;-3.188;2023-12-28T03:47:54;99870.35;;;5.92;100.00
60817;BME280;51921;51.518;-3.188;2023-12-28T03:50:19;99863.19;;;6.18;100.00
60817;BME280;51921;51.518;-3.188;2023-12-28T03:52:45;99862.07;;;6.28;100.00
60817;BME280;51921;51.518;-3.188;2023-12-28T03:55:11;99861.42;;;6.24;100.00
60817;BME280;51921;51.518;-3.188;2023-12-28T03:57:35;99859.12;;;6.58;100.00
60817;BME280;51921;51.518;-3.188;2023-12-28T04:00:01;99870.57;;;6.37;100.00
60817;BME280;51921;51.518;-3.188;2023-12-28T04:02:26;99868.48;;;6.95;100.00
60817;BME280;51921;51.518;-3.188;2023-12-28T04:04:52;99871.09;;;6.50;100.00
60817;BME280;51921;51.518;-3.188;2023-12-28T04:07:17;99855.28;;;6.33;100.00
60817;BME280;51921;51.518;-3.188;2023-12-28T04:09:42;99862.75;;;6.39;100.00
60817;BME280;51921;51.518;-3.188;2023-12-28T04:12:08;99841.40;;;6.27;100.00
60817;BME280;51921;51.518;-3.188;2023-12-28T04:14:34;99869.93;;;5.85;100.00
60817;BME280;51921;51.518;-3.188;2023-12-28T04:16:58;99871.09;;;5.91;100.00
60817;BME280;51921;51.518;-3.188;2023-12-28T04:19:24;99875.62;;;6.04;100.00
60817;BME280;51921;51.518;-3.188;2023-12-28T04:21:50;99875.74;;;6.18;100.00
60817;BME280;51921;51.518;-3.188;2023-12-28T04:24:16;99893.76;;;6.37;100.00
60817;BME280;51921;51.518;-3.188;2023-12-28T04:26:41;99894.17;;;6.33;100.00
60817;BME280;51921;51.518;-3.188;2023-12-28T04:29:07;99900.74;;;6.36;100.00
60817;BME280;51921;51.518;-3.188;2023-12-28T04:31:32;99906.64;;;6.31;100.00
60817;BME280;51921;51.518;-3.188;2023-12-28T04:33:58;99907.33;;;6.30;100.00
60817;BME280;51921;51.518;-3.188;2023-12-28T04:36:23;99904.85;;;5.95;100.00
60817;BME280;51921;51.518;-3.188;2023-12-28T04:38:49;99881.28;;;5.87;100.00
60817;BME280;51921;51.518;-3.188;2023-12-28T04:41:14;99922.26;;;5.70;100.00
60817;BME280;51921;51.518;-3.188;2023-12-28T04:43:41;99943.59;;;5.51;100.00
60817;BME280;51921;51.518;-3.188;2023-12-28T04:46:05;99929.29;;;5.52;100.00
60817;BME280;51921;51.518;-3.188;2023-12-28T04:48:30;99911.42;;;5.26;100.00
60817;BME280;51921;51.518;-3.188;2023-12-28T04:50:56;99909.99;;;5.40;100.00
60817;BME280;51921;51.518;-3.188;2023-12-28T04:53:21;99913.89;;;5.45;100.00
60817;BME280;51921;51.518;-3.188;2023-12-28T04:55:47;99914.86;;;5.50;100.00
60817;BME280;51921;51.518;-3.188;2023-12-28T04:58:13;99911.92;;;5.46;100.00
60817;BME280;51921;51.518;-3.188;2023-12-28T05:00:38;99913.40;;;5.62;100.00
60817;BME280;51921;51.518;-3.188;2023-12-28T05:03:04;99918.22;;;5.63;100.00
60817;BME280;51921;51.518;-3.188;2023-12-28T05:05:28;99912.16;;;5.69;100.00
60817;BME280;51921;51.518;-3.188;2023-12-28T05:07:54;99906.88;;;5.77;100.00
60817;BME280;51921;51.518;-3.188;2023-12-28T05:10:20;99915.03;;;6.23;100.00
60817;BME280;51921;51.518;-3.188;2023-12-28T05:12:46;99920.14;;;5.39;100.00
60817;BME280;51921;51.518;-3.188;2023-12-28T05:15:11;99910.84;;;6.30;100.00
60817;BME280;51921;51.518;-3.188;2023-12-28T05:17:36;99915.54;;;6.11;100.00
60817;BME280;51921;51.518;-3.188;2023-12-28T05:20:02;99915.41;;;6.15;100.00
60817;BME280;51921;51.518;-3.188;2023-12-28T05:22:27;99922.21;;;5.64;100.00
60817;BME280;51921;51.518;-3.188;2023-12-28T05:24:53;99921.25;;;6.33;100.00
60817;BME280;51921;51.518;-3.188;2023-12-28T05:27:19;99922.98;;;6.50;100.00
60817;BME280;51921;51.518;-3.188;2023-12-28T05:29:44;99917.80;;;6.13;100.00
60817;BME280;51921;51.518;-3.188;2023-12-28T05:32:09;99919.51;;;6.53;100.00
60817;BME280;51921;51.518;-3.188;2023-12-28T05:34:35;99894.41;;;6.22;100.00
60817;BME280;51921;51.518;-3.188;2023-12-28T05:37:01;99927.19;;;6.44;100.00
60817;BME280;51921;51.518;-3.188;2023-12-28T05:39:26;99928.32;;;6.65;100.00
60817;BME280;51921;51.518;-3.188;2023-12-28T05:41:52;99933.01;;;6.05;100.00
60817;BME280;51921;51.518;-3.188;2023-12-28T05:44:18;99917.10;;;6.13;100.00
60817;BME280;51921;51.518;-3.188;2023-12-28T05:46:42;99935.05;;;6.08;100.00
60817;BME280;51921;51.518;-3.188;2023-12-28T05:49:08;99938.71;;;6.44;100.00
60817;BME280;51921;51.518;-3.188;2023-12-28T05:51:37;99953.01;;;6.40;100.00
60817;BME280;51921;51.518;-3.188;2023-12-28T05:53:59;99946.63;;;6.31;100.00
60817;BME280;51921;51.518;-3.188;2023-12-28T05:56:24;99939.17;;;6.10;100.00
60817;BME280;51921;51.518;-3.188;2023-12-28T05:58:49;99934.81;;;6.47;100.00
60817;BME280;51921;51.518;-3.188;2023-12-28T06:01:14;99942.95;;;6.16;100.00
60817;BME280;51921;51.518;-3.188;2023-12-28T06:03:40;99958.73;;;5.70;100.00
60817;BME280;51921;51.518;-3.188;2023-12-28T06:06:06;99966.45;;;5.92;100.00
60817;BME280;51921;51.518;-3.188;2023-12-28T06:08:31;99966.27;;;5.87;100.00
60817;BME280;51921;51.518;-3.188;2023-12-28T06:10:56;99957.27;;;6.05;100.00
60817;BME280;51921;51.518;-3.188;2023-12-28T06:13:21;99954.75;;;6.34;100.00
60817;BME280;51921;51.518;-3.188;2023-12-28T06:15:46;99958.18;;;6.26;100.00
60817;BME280;51921;51.518;-3.188;2023-12-28T06:18:11;99964.81;;;6.01;100.00
60817;BME280;51921;51.518;-3.188;2023-12-28T06:20:37;99963.02;;;6.10;100.00
60817;BME280;51921;51.518;-3.188;2023-12-28T06:23:03;99953.50;;;6.38;100.00
60817;BME280;51921;51.518;-3.188;2023-12-28T06:25:28;99954.63;;;6.35;100.00
60817;BME280;51921;51.518;-3.188;2023-12-28T06:27:53;99956.63;;;6.83;100.00
60817;BME280;51921;51.518;-3.188;2023-12-28T06:30:19;99969.64;;;6.20;100.00
60817;BME280;51921;51.518;-3.188;2023-12-28T06:32:44;99969.48;;;6.37;100.00
60817;BME280;51921;51.518;-3.188;2023-12-28T06:35:10;99972.61;;;6.52;100.00
60817;BME280;51921;51.518;-3.188;2023-12-28T06:37:35;99974.33;;;6.80;100.00
60817;BME280;51921;51.518;-3.188;2023-12-28T06:40:01;99975.47;;;7.01;100.00
60817;BME280;51921;51.518;-3.188;2023-12-28T06:42:26;99970.02;;;6.81;100.00
60817;BME280;51921;51.518;-3.188;2023-12-28T06:44:52;99975.63;;;6.70;100.00
60817;BME280;51921;51.518;-3.188;2023-12-28T06:47:17;99980.15;;;6.17;100.00
60817;BME280;51921;51.518;-3.188;2023-12-28T06:49:42;99978.21;;;6.11;100.00
60817;BME280;51921;51.518;-3.188;2023-12-28T06:52:07;99967.68;;;6.57;100.00
60817;BME280;51921;51.518;-3.188;2023-12-28T06:54:33;99960.04;;;6.75;100.00
60817;BME280;51921;51.518;-3.188;2023-12-28T06:56:58;99974.11;;;6.40;100.00
60817;BME280;51921;51.518;-3.188;2023-12-28T06:59:24;100000.75;;;5.84;100.00
60817;BME280;51921;51.518;-3.188;2023-12-28T07:01:50;100003.38;;;6.03;100.00
60817;BME280;51921;51.518;-3.188;2023-12-28T07:04:15;100001.28;;;6.38;100.00
60817;BME280;51921;51.518;-3.188;2023-12-28T07:06:40;100001.40;;;6.46;100.00
60817;BME280;51921;51.518;-3.188;2023-12-28T07:09:06;100001.10;;;6.01;100.00
60817;BME280;51921;51.518;-3.188;2023-12-28T07:11:31;100006.26;;;5.81;100.00
60817;BME280;51921;51.518;-3.188;2023-12-28T07:13:57;99996.81;;;6.09;100.00
60817;BME280;51921;51.518;-3.188;2023-12-28T07:16:22;100005.12;;;6.12;100.00
60817;BME280;51921;51.518;-3.188;2023-12-28T07:18:47;100011.28;;;6.15;100.00
60817;BME280;51921;51.518;-3.188;2023-12-28T07:21:13;100013.53;;;6.51;100.00
60817;BME280;51921;51.518;-3.188;2023-12-28T07:23:38;100012.13;;;6.03;100.00
60817;BME280;51921;51.518;-3.188;2023-12-28T07:26:04;100013.61;;;6.06;100.00
60817;BME280;51921;51.518;-3.188;2023-12-28T07:28:29;100018.81;;;6.08;100.00
60817;BME280;51921;51.518;-3.188;2023-12-28T07:30:55;100018.09;;;6.14;100.00
60817;BME280;51921;51.518;-3.188;2023-12-28T07:33:21;100018.80;;;6.13;100.00
60817;BME280;51921;51.518;-3.188;2023-12-28T07:35:46;100015.59;;;6.19;100.00
60817;BME280;51921;51.518;-3.188;2023-12-28T07:38:12;100014.98;;;6.86;100.00
60817;BME280;51921;51.518;-3.188;2023-12-28T07:40:37;100018.48;;;6.48;100.00
60817;BME280;51921;51.518;-3.188;2023-12-28T07:43:02;100016.28;;;6.40;100.00
60817;BME280;51921;51.518;-3.188;2023-12-28T07:45:27;100016.32;;;6.44;100.00
60817;BME280;51921;51.518;-3.188;2023-12-28T07:47:53;100020.75;;;6.73;100.00
60817;BME280;51921;51.518;-3.188;2023-12-28T07:50:20;100012.56;;;6.02;100.00
60817;BME280;51921;51.518;-3.188;2023-12-28T07:52:45;100019.26;;;6.58;100.00
60817;BME280;51921;51.518;-3.188;2023-12-28T07:55:09;100019.40;;;7.05;100.00
60817;BME280;51921;51.518;-3.188;2023-12-28T07:57:35;100027.20;;;6.58;100.00
60817;BME280;51921;51.518;-3.188;2023-12-28T08:00:00;100029.29;;;6.22;100.00
60817;BME280;51921;51.518;-3.188;2023-12-28T08:02:25;100014.15;;;6.04;100.00
60817;BME280;51921;51.518;-3.188;2023-12-28T08:04:51;100019.04;;;6.12;100.00
60817;BME280;51921;51.518;-3.188;2023-12-28T08:07:16;100040.52;;;6.11;100.00
60817;BME280;51921;51.518;-3.188;2023-12-28T08:09:42;100027.19;;;5.94;100.00
60817;BME280;51921;51.518;-3.188;2023-12-28T08:12:07;100034.56;;;5.79;100.00
60817;BME280;51921;51.518;-3.188;2023-12-28T08:14:33;100035.80;;;5.94;100.00
60817;BME280;51921;51.518;-3.188;2023-12-28T08:16:58;100035.33;;;5.64;100.00
60817;BME280;51921;51.518;-3.188;2023-12-28T08:19:24;100037.09;;;6.00;100.00
60817;BME280;51921;51.518;-3.188;2023-12-28T08:21:49;100020.20;;;6.56;100.00
60817;BME280;51921;51.518;-3.188;2023-12-28T08:24:14;100026.82;;;6.14;100.00
60817;BME280;51921;51.518;-3.188;2023-12-28T08:26:40;100034.97;;;6.07;100.00
60817;BME280;51921;51.518;-3.188;2023-12-28T08:29:07;100036.27;;;6.30;100.00
60817;BME280;51921;51.518;-3.188;2023-12-28T08:31:31;100026.68;;;6.28;100.00
60817;BME280;51921;51.518;-3.188;2023-12-28T08:33:56;100034.70;;;6.32;100.00
60817;BME280;51921;51.518;-3.188;2023-12-28T08:36:22;100032.04;;;6.19;100.00
60817;BME280;51921;51.518;-3.188;2023-12-28T08:38:47;100032.80;;;6.35;100.00
60817;BME280;51921;51.518;-3.188;2023-12-28T08:41:18;100030.99;;;6.33;100.00
60817;BME280;51921;51.518;-3.188;2023-12-28T08:43:38;100025.86;;;6.15;100.00
60817;BME280;51921;51.518;-3.188;2023-12-28T08:46:07;100037.22;;;5.83;100.00
60817;BME280;51921;51.518;-3.188;2023-12-28T08:48:29;100037.16;;;6.38;100.00
60817;BME280;51921;51.518;-3.188;2023-12-28T08:50:54;100038.99;;;6.41;100.00
60817;BME280;51921;51.518;-3.188;2023-12-28T08:53:20;100031.75;;;6.41;100.00
60817;BME280;51921;51.518;-3.188;2023-12-28T08:55:46;100037.72;;;6.59;100.00
60817;BME280;51921;51.518;-3.188;2023-12-28T08:58:11;100041.64;;;6.48;100.00
60817;BME280;51921;51.518;-3.188;2023-12-28T09:00:37;100036.21;;;6.64;100.00
60817;BME280;51921;51.518;-3.188;2023-12-28T09:03:03;100038.75;;;6.39;100.00
60817;BME280;51921;51.518;-3.188;2023-12-28T09:05:27;100040.31;;;6.31;100.00
60817;BME280;51921;51.518;-3.188;2023-12-28T09:07:53;100037.12;;;6.55;100.00
60817;BME280;51921;51.518;-3.188;2023-12-28T09:10:20;100045.97;;;6.28;100.00
60817;BME280;51921;51.518;-3.188;2023-12-28T09:12:44;100038.50;;;6.40;100.00
60817;BME280;51921;51.518;-3.188;2023-12-28T09:15:09;100040.98;;;6.28;100.00
60817;BME280;51921;51.518;-3.188;2023-12-28T09:17:38;100035.55;;;6.77;100.00
60817;BME280;51921;51.518;-3.188;2023-12-28T09:20:00;100041.12;;;6.45;100.00
60817;BME280;51921;51.518;-3.188;2023-12-28T09:22:25;100035.24;;;6.64;100.00
60817;BME280;51921;51.518;-3.188;2023-12-28T09:24:51;100034.13;;;6.35;100.00
60817;BME280;51921;51.518;-3.188;2023-12-28T09:27:16;100042.79;;;6.32;100.00
60817;BME280;51921;51.518;-3.188;2023-12-28T09:29:41;100046.14;;;6.34;100.00
60817;BME280;51921;51.518;-3.188;2023-12-28T09:32:06;100059.02;;;6.19;100.00
60817;BME280;51921;51.518;-3.188;2023-12-28T09:34:32;100056.32;;;5.88;100.00
60817;BME280;51921;51.518;-3.188;2023-12-28T09:36:57;100056.42;;;6.57;100.00
60817;BME280;51921;51.518;-3.188;2023-12-28T09:39:23;100054.42;;;6.77;100.00
60817;BME280;51921;51.518;-3.188;2023-12-28T09:41:54;100042.79;;;6.35;100.00
60817;BME280;51921;51.518;-3.188;2023-12-28T09:44:15;100048.18;;;6.21;100.00
60817;BME280;51921;51.518;-3.188;2023-12-28T09:46:41;100042.62;;;6.31;100.00
60817;BME280;51921;51.518;-3.188;2023-12-28T09:49:04;100061.21;;;6.47;100.00
60817;BME280;51921;51.518;-3.188;2023-12-28T09:51:29;100037.74;;;6.45;100.00
60817;BME280;51921;51.518;-3.188;2023-12-28T09:53:56;100039.83;;;6.89;100.00
60817;BME280;51921;51.518;-3.188;2023-12-28T09:56:20;100028.87;;;6.92;100.00
60817;BME280;51921;51.518;-3.188;2023-12-28T09:58:48;100025.73;;;6.80;100.00
60817;BME280;51921;51.518;-3.188;2023-12-28T10:01:14;100032.17;;;6.74;100.00
60817;BME280;51921;51.518;-3.188;2023-12-28T10:03:36;100035.42;;;6.80;100.00
60817;BME280;51921;51.518;-3.188;2023-12-28T10:06:01;100018.57;;;6.70;100.00
60817;BME280;51921;51.518;-3.188;2023-12-28T10:08:27;100026.40;;;7.07;100.00
60817;BME280;51921;51.518;-3.188;2023-12-28T10:10:52;100031.73;;;6.67;100.00
60817;BME280;51921;51.518;-3.188;2023-12-28T10:13:17;100019.37;;;7.02;100.00
60817;BME280;51921;51.518;-3.188;2023-12-28T10:15:43;100033.69;;;7.46;100.00
60817;BME280;51921;51.518;-3.188;2023-12-28T10:18:08;100040.74;;;6.92;100.00
60817;BME280;51921;51.518;-3.188;2023-12-28T10:20:36;100030.80;;;7.23;100.00
60817;BME280;51921;51.518;-3.188;2023-12-28T10:22:59;100029.73;;;7.42;100.00
60817;BME280;51921;51.518;-3.188;2023-12-28T10:25:25;100025.25;;;7.24;100.00
60817;BME280;51921;51.518;-3.188;2023-12-28T10:27:50;100019.28;;;6.92;100.00
60817;BME280;51921;51.518;-3.188;2023-12-28T10:30:15;100025.73;;;6.92;100.00
60817;BME280;51921;51.518;-3.188;2023-12-28T10:32:41;100016.40;;;7.38;100.00
60817;BME280;51921;51.518;-3.188;2023-12-28T10:35:08;100015.38;;;6.84;100.00
60817;BME280;51921;51.518;-3.188;2023-12-28T10:37:32;100020.51;;;7.15;100.00
60817;BME280;51921;51.518;-3.188;2023-12-28T10:39:59;100024.79;;;7.32;100.00
60817;BME280;51921;51.518;-3.188;2023-12-28T10:42:28;100024.40;;;7.51;100.00
60817;BME280;51921;51.518;-3.188;2023-12-28T10:44:51;100014.79;;;7.65;100.00
60817;BME280;51921;51.518;-3.188;2023-12-28T10:47:16;100006.64;;;7.16;100.00
60817;BME280;51921;51.518;-3.188;2023-12-28T10:49:40;100006.36;;;7.09;100.00
60817;BME280;51921;51.518;-3.188;2023-12-28T10:52:06;100005.57;;;6.80;100.00
60817;BME280;51921;51.518;-3.188;2023-12-28T10:54:37;100013.79;;;6.83;100.00
60817;BME280;51921;51.518;-3.188;2023-12-28T10:57:01;100017.35;;;6.45;100.00
60817;BME280;51921;51.518;-3.188;2023-12-28T10:59:32;100018.52;;;7.12;100.00
60817;BME280;51921;51.518;-3.188;2023-12-28T11:01:47;100038.33;;;7.04;100.00
60817;BME280;51921;51.518;-3.188;2023-12-28T11:04:17;100034.32;;;7.09;100.00
60817;BME280;51921;51.518;-3.188;2023-12-28T11:06:36;100045.32;;;6.92;100.00
60817;BME280;51921;51.518;-3.188;2023-12-28T11:09:02;100030.94;;;6.66;100.00
60817;BME280;51921;51.518;-3.188;2023-12-28T11:11:28;100024.93;;;7.05;100.00
60817;BME280;51921;51.518;-3.188;2023-12-28T11:13:52;100015.31;;;6.80;100.00
60817;BME280;51921;51.518;-3.188;2023-12-28T11:16:19;100017.37;;;6.65;100.00
60817;BME280;51921;51.518;-3.188;2023-12-28T11:18:43;100016.31;;;6.98;100.00
60817;BME280;51921;51.518;-3.188;2023-12-28T11:21:09;100015.60;;;7.02;100.00
60817;BME280;51921;51.518;-3.188;2023-12-28T11:23:34;100010.41;;;6.93;100.00
60817;BME280;51921;51.518;-3.188;2023-12-28T11:25:59;100008.43;;;6.85;100.00
60817;BME280;51921;51.518;-3.188;2023-12-28T11:28:24;100009.64;;;7.28;100.00
60817;BME280;51921;51.518;-3.188;2023-12-28T11:30:53;100012.56;;;7.32;100.00
60817;BME280;51921;51.518;-3.188;2023-12-28T11:33:17;99998.54;;;7.27;100.00
60817;BME280;51921;51.518;-3.188;2023-12-28T11:35:41;99996.67;;;7.27;100.00
60817;BME280;51921;51.518;-3.188;2023-12-28T11:38:09;99999.06;;;7.50;100.00
60817;BME280;51921;51.518;-3.188;2023-12-28T11:40:40;99991.59;;;7.15;100.00
60817;BME280;51921;51.518;-3.188;2023-12-28T11:42:58;99986.30;;;7.37;100.00
60817;BME280;51921;51.518;-3.188;2023-12-28T11:45:23;99981.58;;;7.05;100.00
60817;BME280;51921;51.518;-3.188;2023-12-28T11:48:00;99993.04;;;7.08;100.00
60817;BME280;51921;51.518;-3.188;2023-12-28T11:50:14;99976.07;;;7.46;100.00
60817;BME280;51921;51.518;-3.188;2023-12-28T11:52:39;99966.44;;;7.34;100.00
60817;BME280;51921;51.518;-3.188;2023-12-28T11:55:04;99962.28;;;7.34;100.00
60817;BME280;51921;51.518;-3.188;2023-12-28T11:57:30;99949.96;;;7.30;100.00
60817;BME280;51921;51.518;-3.188;2023-12-28T11:59:57;99963.80;;;7.11;100.00
60817;BME280;51921;51.518;-3.188;2023-12-28T12:02:20;99959.35;;;6.99;100.00
60817;BME280;51921;51.518;-3.188;2023-12-28T12:04:46;99966.22;;;7.34;100.00
60817;BME280;51921;51.518;-3.188;2023-12-28T12:07:11;99941.77;;;7.29;100.00
60817;BME280;51921;51.518;-3.188;2023-12-28T12:09:36;99956.80;;;7.23;100.00
60817;BME280;51921;51.518;-3.188;2023-12-28T12:12:02;99944.46;;;7.13;100.00
60817;BME280;51921;51.518;-3.188;2023-12-28T12:14:28;99949.48;;;7.11;100.00
60817;BME280;51921;51.518;-3.188;2023-12-28T12:16:54;99955.41;;;7.29;100.00
60817;BME280;51921;51.518;-3.188;2023-12-28T12:19:18;99939.85;;;7.58;100.00
60817;BME280;51921;51.518;-3.188;2023-12-28T12:21:44;99930.65;;;7.26;100.00
60817;BME280;51921;51.518;-3.188;2023-12-28T12:24:10;99925.64;;;7.40;100.00
60817;BME280;51921;51.518;-3.188;2023-12-28T12:26:39;99918.89;;;7.28;100.00
60817;BME280;51921;51.518;-3.188;2023-12-28T12:29:00;99924.40;;;7.66;100.00
60817;BME280;51921;51.518;-3.188;2023-12-28T12:31:25;99934.28;;;7.65;100.00
60817;BME280;51921;51.518;-3.188;2023-12-28T12:33:51;99919.24;;;7.67;100.00